Time;durP1;ratioP1;P1;durP2;ratioP2;P2;SDS_P1;SDS_P2;PMS_P1;PMS_P2;Temp;Humidity;BMP_temperature;BMP_pressure;BME280_temperature;BME280_humidity;BME280_pressure;Samples;Min_cycle;Max_cycle;Signal;HPM_P1;HPM_P2
2023/10/05 00:01:27;;;;;;;;;;;;;;;-144.32;100.00;68061.97;10311838;28;19926;-80
2023/10/05 00:06:27;;;;;;;;;;;;;;;-144.32;100.00;68061.97;10303199;28;20484;-79
2023/10/05 00:11:30;;;;;;;;;;;;;;;-144.32;100.00;68061.97;10331944;28;19930;-82
2023/10/05 00:16:36;;;;;;;;;;;;;;;-144.32;100.00;68061.97;10348774;28;20079;-77
2023/10/05 00:21:39;;;;;;;;;;;;;;;-144.32;100.00;68061.97;10320895;28;19996;-78
2023/10/05 00:26:43;;;;;;;;;;;;;;;-144.32;100.00;68061.97;10314331;28;20004;-79
2023/10/05 00:31:45;;;;;;;;;;;;;;;-144.32;100.00;68061.97;10318798;28;19922;-77
2023/10/05 00:36:49;;;;;;;;;;;;;;;-144.32;100.00;68061.97;10306069;28;20386;-77
2023/10/05 00:42:08;;;;;;;;;;;;;;;-144.32;100.00;68061.97;10302827;28;19929;-80
2023/10/05 00:47:13;;;;;;;;;;;;;;;-144.32;100.00;68061.97;10302915;28;20048;-80
2023/10/05 00:52:18;;;;;;;;;;;;;;;-144.32;100.00;68061.97;10338053;28;19921;-80
2023/10/05 00:57:22;;;;;;;;;;;;;;;-144.32;100.00;68061.97;10375786;28;20010;-80
2023/10/05 01:02:26;;;;;;;;;;;;;;;-144.32;100.00;68061.97;10351292;28;19926;-78
2023/10/05 01:12:48;;;;;;;;;;;;;;;-144.32;100.00;68061.97;10303985;28;20726;-78
2023/10/05 01:17:52;;;;;;;;;;;;;;;-144.32;100.00;68061.97;10300999;28;20020;-78
2023/10/05 01:23:01;;;;;;;;;;;;;;;-144.32;100.00;68061.97;10291355;28;19925;-77
2023/10/05 01:28:04;;;;;;;;;;;;;;;-144.32;100.00;68061.97;10306367;28;19932;-78
2023/10/05 01:33:08;;;;;;;;;;;;;;;-144.32;100.00;68061.97;10287117;28;20298;-78
2023/10/05 01:38:08;;;;;;;;;;;;;;;-144.32;100.00;68061.97;10302117;28;19926;-78
2023/10/05 01:43:09;;;;;;;;;;;;;;;-144.32;100.00;68061.97;10304447;28;19946;-78
2023/10/05 01:48:15;;;;;;;;;;;;;;;-144.32;100.00;68061.97;10288960;28;19929;-79
2023/10/05 01:53:18;;;;;;;;;;;;;;;-144.32;100.00;68061.97;10301024;28;19960;-77
2023/10/05 01:58:26;;;;;;;;;;;;;;;-144.32;100.00;68061.97;10300982;28;20143;-77
2023/10/05 02:03:32;;;;;;;;;;;;;;;-144.32;100.00;68061.97;10309820;28;20528;-78
2023/10/05 02:08:42;;;;;;;;;;;;;;;-144.32;100.00;68061.97;10296155;28;19926;-78
2023/10/05 02:13:45;;;;;;;;;;;;;;;-144.32;100.00;68061.97;10258952;28;19926;-79
2023/10/05 02:18:48;;;;;;;;;;;;;;;-144.32;100.00;68061.97;10285291;28;20169;-79
2023/10/05 02:23:51;;;;;;;;;;;;;;;-144.32;100.00;68061.97;10288953;28;19933;-78
2023/10/05 02:28:52;;;;;;;;;;;;;;;-144.32;100.00;68061.97;10266767;28;19948;-78
2023/10/05 02:33:54;;;;;;;;;;;;;;;-144.32;100.00;68061.97;10298905;28;19933;-77
2023/10/05 02:38:55;;;;;;;;;;;;;;;-144.32;100.00;68061.97;10274879;28;20013;-78
2023/10/05 02:43:58;;;;;;;;;;;;;;;-144.32;100.00;68061.97;10302015;28;20563;-79
2023/10/05 02:48:58;;;;;;;;;;;;;;;-144.32;100.00;68061.97;10294304;28;20009;-78
2023/10/05 02:54:04;;;;;;;;;;;;;;;-144.32;100.00;68061.97;10292204;28;19932;-81
2023/10/05 02:59:09;;;;;;;;;;;;;;;-144.32;100.00;68061.97;10302550;28;19926;-80
2023/10/05 03:04:21;;;;;;;;;;;;;;;-144.32;100.00;68061.97;10270854;28;20237;-78
2023/10/05 03:09:22;;;;;;;;;;;;;;;-144.32;100.00;68061.97;10286159;28;19929;-79
2023/10/05 03:14:23;;;;;;;;;;;;;;;-144.32;100.00;68061.97;10300056;28;19968;-78
2023/10/05 03:19:23;;;;;;;;;;;;;;;-144.32;100.00;68061.97;10284809;28;20019;-81
2023/10/05 03:24:26;;;;;;;;;;;;;;;-144.32;100.00;68061.97;10323788;28;20640;-82
2023/10/05 03:29:27;;;;;;;;;;;;;;;-144.32;100.00;68061.97;10343003;28;19935;-77
2023/10/05 03:34:28;;;;;;;;;;;;;;;-144.32;100.00;68061.97;10297028;28;19933;-78
2023/10/05 03:39:31;;;;;;;;;;;;;;;-144.32;100.00;68061.97;10298632;28;19926;-78
2023/10/05 03:44:33;;;;;;;;;;;;;;;-144.32;100.00;68061.97;10308254;28;19925;-78
2023/10/05 03:49:34;;;;;;;;;;;;;;;-144.32;100.00;68061.97;10302575;28;19933;-77
2023/10/05 03:54:38;;;;;;;;;;;;;;;-144.32;100.00;68061.97;10293061;28;19925;-78
2023/10/05 03:59:39;;;;;;;;;;;;;;;-144.32;100.00;68061.97;10282483;28;19969;-78
2023/10/05 04:04:42;;;;;;;;;;;;;;;-144.32;100.00;68061.97;10282317;28;19981;-83
2023/10/05 04:09:44;;;;;;;;;;;;;;;-144.32;100.00;68061.97;10304399;28;19944;-80
2023/10/05 04:14:44;;;;;;;;;;;;;;;-144.32;100.00;68061.97;10305140;28;19932;-78
2023/10/05 04:19:46;;;;;;;;;;;;;;;-144.32;100.00;68061.97;10303263;28;19926;-79
2023/10/05 04:24:49;;;;;;;;;;;;;;;-144.32;100.00;68061.97;10306050;28;20438;-80
2023/10/05 04:29:50;;;;;;;;;;;;;;;-144.32;100.00;68061.97;10299806;28;20401;-77
2023/10/05 04:34:51;;;;;;;;;;;;;;;-144.32;100.00;68061.97;10301725;28;20050;-78
2023/10/05 04:39:52;;;;;;;;;;;;;;;-144.32;100.00;68061.97;10291900;28;19926;-77
2023/10/05 04:44:53;;;;;;;;;;;;;;;-144.32;100.00;68061.97;10293428;28;19925;-79
2023/10/05 04:49:58;;;;;;;;;;;;;;;-144.32;100.00;68061.97;10275758;28;20012;-78
2023/10/05 04:55:14;;;;;;;;;;;;;;;-144.32;100.00;68061.97;10287080;28;19936;-81
2023/10/05 05:06:22;;;;;;;;;;;;;;;-144.32;100.00;68061.97;10297113;28;19925;-84
2023/10/05 05:10:58;;;;;;;;;;;;;;;-144.32;100.00;68061.97;10276039;28;20370;-80
2023/10/05 05:16:09;;;;;;;;;;;;;;;-144.32;100.00;68061.97;10325560;28;19925;-80
2023/10/05 05:21:12;;;;;;;;;;;;;;;-144.32;100.00;68061.97;10334768;28;20127;-82
2023/10/05 05:26:14;;;;;;;;;;;;;;;-144.32;100.00;68061.97;10344182;28;19925;-81
2023/10/05 05:31:18;;;;;;;;;;;;;;;-144.32;100.00;68061.97;10320238;28;19910;-86
2023/10/05 05:36:23;;;;;;;;;;;;;;;-144.32;100.00;68061.97;10339611;28;20407;-81
2023/10/05 05:41:27;;;;;;;;;;;;;;;-144.32;100.00;68061.97;10332141;28;19933;-83
2023/10/05 05:46:30;;;;;;;;;;;;;;;-144.32;100.00;68061.97;10336549;28;19937;-82
2023/10/05 05:51:31;;;;;;;;;;;;;;;-144.32;100.00;68061.97;10337852;28;19965;-82
2023/10/05 05:56:33;;;;;;;;;;;;;;;-144.32;100.00;68061.97;10327146;28;20245;-81
2023/10/05 06:01:36;;;;;;;;;;;;;;;-144.32;100.00;68061.97;10331418;28;19963;-82
2023/10/05 06:06:48;;;;;;;;;;;;;;;-144.32;100.00;68061.97;10338131;28;19925;-81
2023/10/05 06:11:49;;;;;;;;;;;;;;;-144.32;100.00;68061.97;10323776;28;19952;-82
2023/10/05 06:16:54;;;;;;;;;;;;;;;-144.32;100.00;68061.97;10306978;28;19929;-82
2023/10/05 06:22:03;;;;;;;;;;;;;;;-144.32;100.00;68061.97;10319811;28;19926;-80
2023/10/05 06:27:04;;;;;;;;;;;;;;;-144.32;100.00;68061.97;10315615;28;19926;-83
2023/10/05 06:32:08;;;;;;;;;;;;;;;-144.32;100.00;68061.97;10298102;28;20020;-84
2023/10/05 06:37:11;;;;;;;;;;;;;;;-144.32;100.00;68061.97;10332889;28;19920;-84
2023/10/05 06:42:14;;;;;;;;;;;;;;;-144.32;100.00;68061.97;10346464;28;19922;-84
2023/10/05 06:47:35;;;;;;;;;;;;;;;-144.32;100.00;68061.97;10325304;28;19925;-81
2023/10/05 06:52:50;;;;;;;;;;;;;;;-144.32;100.00;68061.97;10310020;28;19988;-82
2023/10/05 06:57:52;;;;;;;;;;;;;;;-144.32;100.00;68061.97;10302975;28;19926;-83
2023/10/05 07:03:05;;;;;;;;;;;;;;;-144.32;100.00;68061.97;10317976;28;20093;-82
2023/10/05 07:08:07;;;;;;;;;;;;;;;-144.32;100.00;68061.97;10321248;28;19922;-80
2023/10/05 07:13:09;;;;;;;;;;;;;;;-144.32;100.00;68061.97;10314160;28;20297;-82
2023/10/05 07:18:12;;;;;;;;;;;;;;;-144.32;100.00;68061.97;10328250;28;19928;-81
2023/10/05 07:23:16;;;;;;;;;;;;;;;-144.32;100.00;68061.97;10313925;28;19921;-83
2023/10/05 07:28:16;;;;;;;;;;;;;;;-144.32;100.00;68061.97;10329497;28;19969;-82
2023/10/05 07:33:17;;;;;;;;;;;;;;;-144.32;100.00;68061.97;10306325;28;20020;-81
2023/10/05 07:38:18;;;;;;;;;;;;;;;-144.32;100.00;68061.97;10364494;28;19949;-81
2023/10/05 07:43:23;;;;;;;;;;;;;;;-144.32;100.00;68061.97;10353439;28;19917;-81
2023/10/05 07:49:00;;;;;;;;;;;;;;;-144.32;100.00;68061.97;10360341;28;19997;-81
2023/10/05 07:54:02;;;;;;;;;;;;;;;-144.32;100.00;68061.97;10331059;28;19933;-81
2023/10/05 07:59:23;;;;;;;;;;;;;;;-144.32;100.00;68061.97;10327490;28;20039;-81
2023/10/05 08:04:24;;;;;;;;;;;;;;;-144.32;100.00;68061.97;10324314;28;20040;-81
2023/10/05 08:09:26;;;;;;;;;;;;;;;-144.32;100.00;68061.97;10331813;28;19929;-82
2023/10/05 08:14:27;;;;;;;;;;;;;;;-144.32;100.00;68061.97;10322556;28;20049;-81
2023/10/05 08:19:28;;;;;;;;;;;;;;;-144.32;100.00;68061.97;10315792;28;19930;-83
2023/10/05 08:24:32;;;;;;;;;;;;;;;-144.32;100.00;68061.97;10319939;28;19926;-82
2023/10/05 08:29:34;;;;;;;;;;;;;;;-144.32;100.00;68061.97;10267114;28;19937;-80
2023/10/05 08:34:39;;;;;;;;;;;;;;;-144.32;100.00;68061.97;10305420;28;20012;-80
2023/10/05 08:39:40;;;;;;;;;;;;;;;-144.32;100.00;68061.97;10298435;28;20491;-81
2023/10/05 08:44:43;;;;;;;;;;;;;;;-144.32;100.00;68061.97;10316480;28;19926;-81
2023/10/05 08:49:43;;;;;;;;;;;;;;;-144.32;100.00;68061.97;10296140;28;20382;-82
2023/10/05 08:54:46;;;;;;;;;;;;;;;-144.32;100.00;68061.97;10298124;28;20016;-81
2023/10/05 08:59:47;;;;;;;;;;;;;;;-144.32;100.00;68061.97;10326749;28;20203;-81
2023/10/05 09:04:59;;;;;;;;;;;;;;;-144.32;100.00;68061.97;10320556;28;19930;-81
2023/10/05 09:10:02;;;;;;;;;;;;;;;-144.32;100.00;68061.97;10338440;28;19926;-81
2023/10/05 09:20:22;;;;;;;;;;;;;;;-144.32;100.00;68061.97;10316296;28;20603;-83
2023/10/05 09:25:28;;;;;;;;;;;;;;;-144.32;100.00;68061.97;10315129;28;20901;-80
2023/10/05 09:30:31;;;;;;;;;;;;;;;-144.32;100.00;68061.97;10318106;28;19952;-81
2023/10/05 09:35:38;;;;;;;;;;;;;;;-144.32;100.00;68061.97;10294192;28;19925;-82
2023/10/05 09:40:40;;;;;;;;;;;;;;;-144.32;100.00;68061.97;10323350;28;19969;-81
2023/10/05 09:45:57;;;;;;;;;;;;;;;-144.32;100.00;68061.97;10322435;28;19925;-84
2023/10/05 09:50:59;;;;;;;;;;;;;;;-144.32;100.00;68061.97;10322206;28;19925;-83
2023/10/05 09:56:00;;;;;;;;;;;;;;;-144.32;100.00;68061.97;10360378;28;19914;-83
2023/10/05 10:01:10;;;;;;;;;;;;;;;-144.32;100.00;68061.97;10360962;28;19910;-84
2023/10/05 10:06:18;;;;;;;;;;;;;;;-144.32;100.00;68061.97;10321880;28;19925;-82
2023/10/05 10:11:24;;;;;;;;;;;;;;;-144.32;100.00;68061.97;10313823;28;19960;-80
2023/10/05 10:16:30;;;;;;;;;;;;;;;-144.32;100.00;68061.97;10318355;28;20425;-83
2023/10/05 10:21:46;;;;;;;;;;;;;;;-144.32;100.00;68061.97;10363298;28;19914;-83
2023/10/05 10:27:18;;;;;;;;;;;;;;;-144.32;100.00;68061.97;10354905;28;19924;-84
2023/10/05 10:32:30;;;;;;;;;;;;;;;-144.32;100.00;68061.97;10322057;28;19930;-79
2023/10/05 10:37:44;;;;;;;;;;;;;;;-144.32;100.00;68061.97;10291563;28;19965;-78
2023/10/05 10:42:54;;;;;;;;;;;;;;;-144.32;100.00;68061.97;10315758;28;19925;-79
2023/10/05 10:47:55;;;;;;;;;;;;;;;-144.32;100.00;68061.97;10273491;28;19981;-79
2023/10/05 10:52:56;;;;;;;;;;;;;;;-144.32;100.00;68061.97;10276206;28;20029;-79
2023/10/05 10:57:59;;;;;;;;;;;;;;;-144.32;100.00;68061.97;10273509;28;20466;-81
2023/10/05 11:03:09;;;;;;;;;;;;;;;-144.32;100.00;68061.97;10285127;28;19981;-81
2023/10/05 11:08:11;;;;;;;;;;;;;;;-144.32;100.00;68061.97;10269136;28;19929;-79
2023/10/05 11:13:18;;;;;;;;;;;;;;;-144.32;100.00;68061.97;10308901;28;19976;-79
2023/10/05 11:18:18;;;;;;;;;;;;;;;-144.32;100.00;68061.97;10329321;28;19929;-81
2023/10/05 11:23:25;;;;;;;;;;;;;;;-144.32;100.00;68061.97;10311381;28;19929;-80
2023/10/05 11:28:25;;;;;;;;;;;;;;;-144.32;100.00;68061.97;10302689;28;19956;-81
2023/10/05 11:33:33;;;;;;;;;;;;;;;-144.32;100.00;68061.97;10295292;28;20623;-80
2023/10/05 11:38:35;;;;;;;;;;;;;;;-144.32;100.00;68061.97;10310094;28;20742;-80
2023/10/05 11:43:39;;;;;;;;;;;;;;;-144.32;100.00;68061.97;10305322;28;19925;-78
2023/10/05 11:48:42;;;;;;;;;;;;;;;-144.32;100.00;68061.97;10299995;28;20675;-79
2023/10/05 11:53:44;;;;;;;;;;;;;;;-144.32;100.00;68061.97;10317741;28;19926;-80
2023/10/05 11:58:46;;;;;;;;;;;;;;;-144.32;100.00;68061.97;10319136;28;19925;-80
2023/10/05 12:03:50;;;;;;;;;;;;;;;-144.32;100.00;68061.97;10297556;28;19960;-80
2023/10/05 12:09:00;;;;;;;;;;;;;;;-144.32;100.00;68061.97;10292728;28;19932;-79
2023/10/05 12:14:04;;;;;;;;;;;;;;;-144.32;100.00;68061.97;10308356;28;19926;-77
2023/10/05 12:19:21;;;;;;;;;;;;;;;-144.32;100.00;68061.97;10308263;28;19921;-79
2023/10/05 12:24:23;;;;;;;;;;;;;;;-144.32;100.00;68061.97;10295893;28;20387;-78
2023/10/05 12:29:24;;;;;;;;;;;;;;;-144.32;100.00;68061.97;10344721;28;19923;-81
2023/10/05 12:34:25;;;;;;;;;;;;;;;-144.32;100.00;68061.97;10354050;28;20370;-79
2023/10/05 12:39:27;;;;;;;;;;;;;;;-144.32;100.00;68061.97;10336277;28;19932;-78
2023/10/05 12:44:28;;;;;;;;;;;;;;;-144.32;100.00;68061.97;10312652;28;20595;-79
2023/10/05 12:49:28;;;;;;;;;;;;;;;-144.32;100.00;68061.97;10319291;28;19922;-80
2023/10/05 12:54:28;;;;;;;;;;;;;;;-144.32;100.00;68061.97;10309838;28;19925;-77
2023/10/05 12:59:29;;;;;;;;;;;;;;;-144.32;100.00;68061.97;10302617;28;19926;-80
2023/10/05 13:04:31;;;;;;;;;;;;;;;-144.32;100.00;68061.97;10323797;28;20012;-79
2023/10/05 13:09:32;;;;;;;;;;;;;;;-144.32;100.00;68061.97;10344741;28;19941;-78
2023/10/05 13:14:34;;;;;;;;;;;;;;;-144.32;100.00;68061.97;10308793;28;20333;-77
2023/10/05 13:19:34;;;;;;;;;;;;;;;-144.32;100.00;68061.97;10303021;28;19930;-77
2023/10/05 13:24:36;;;;;;;;;;;;;;;-144.32;100.00;68061.97;10323361;28;19925;-78
2023/10/05 13:29:42;;;;;;;;;;;;;;;-144.32;100.00;68061.97;10331616;28;19921;-81
2023/10/05 13:34:46;;;;;;;;;;;;;;;-144.32;100.00;68061.97;10315079;28;20004;-80
2023/10/05 13:39:53;;;;;;;;;;;;;;;-144.32;100.00;68061.97;10310671;28;19936;-78
2023/10/05 13:44:54;;;;;;;;;;;;;;;-144.32;100.00;68061.97;10308263;28;19926;-76
2023/10/05 13:49:55;;;;;;;;;;;;;;;-144.32;100.00;68061.97;10310630;28;19961;-76
2023/10/05 13:54:55;;;;;;;;;;;;;;;-144.32;100.00;68061.97;10287625;28;19925;-79
2023/10/05 13:59:55;;;;;;;;;;;;;;;-144.32;100.00;68061.97;10311288;28;19940;-76
2023/10/05 14:04:56;;;;;;;;;;;;;;;-144.32;100.00;68061.97;10303477;28;20671;-76
2023/10/05 14:09:56;;;;;;;;;;;;;;;-144.32;100.00;68061.97;10306885;28;19929;-76
2023/10/05 14:14:56;;;;;;;;;;;;;;;-144.32;100.00;68061.97;10309580;28;19972;-77
2023/10/05 14:19:57;;;;;;;;;;;;;;;-144.32;100.00;68061.97;10314967;28;19945;-77
2023/10/05 14:25:06;;;;;;;;;;;;;;;-144.32;100.00;68061.97;10308928;28;20334;-77
2023/10/05 14:30:07;;;;;;;;;;;;;;;-144.32;100.00;68061.97;10309803;28;19926;-81
2023/10/05 14:35:09;;;;;;;;;;;;;;;-144.32;100.00;68061.97;10306236;28;19926;-77
2023/10/05 14:40:18;;;;;;;;;;;;;;;-144.32;100.00;68061.97;10314960;28;19928;-77
2023/10/05 14:45:21;;;;;;;;;;;;;;;-144.32;100.00;68061.97;10300052;28;19930;-79
2023/10/05 14:50:22;;;;;;;;;;;;;;;-144.32;100.00;68061.97;10289700;28;19930;-78
2023/10/05 14:55:26;;;;;;;;;;;;;;;-144.32;100.00;68061.97;10350219;28;20641;-81
2023/10/05 15:00:29;;;;;;;;;;;;;;;-144.32;100.00;68061.97;10351038;28;19930;-79
2023/10/05 15:05:30;;;;;;;;;;;;;;;-144.32;100.00;68061.97;10303504;28;19932;-81
2023/10/05 15:10:31;;;;;;;;;;;;;;;-144.32;100.00;68061.97;10312742;28;19932;-81
2023/10/05 15:15:32;;;;;;;;;;;;;;;-144.32;100.00;68061.97;10289652;28;20024;-79
2023/10/05 15:20:37;;;;;;;;;;;;;;;-144.32;100.00;68061.97;10291825;28;19921;-81
2023/10/05 15:25:40;;;;;;;;;;;;;;;-144.32;100.00;68061.97;10318389;28;19925;-76
2023/10/05 15:30:41;;;;;;;;;;;;;;;-144.32;100.00;68061.97;10316612;28;19925;-76
2023/10/05 15:35:42;;;;;;;;;;;;;;;-144.32;100.00;68061.97;10299524;28;19936;-80
2023/10/05 15:40:43;;;;;;;;;;;;;;;-144.32;100.00;68061.97;10323687;28;20268;-77
2023/10/05 15:45:44;;;;;;;;;;;;;;;-144.32;100.00;68061.97;10323370;28;20274;-76
2023/10/05 15:50:48;;;;;;;;;;;;;;;-144.32;100.00;68061.97;10305077;28;19971;-77
2023/10/05 15:55:49;;;;;;;;;;;;;;;-144.32;100.00;68061.97;10322817;28;19929;-79
2023/10/05 16:00:49;;;;;;;;;;;;;;;-144.32;100.00;68061.97;10323997;28;19929;-78
2023/10/05 16:05:50;;;;;;;;;;;;;;;-144.32;100.00;68061.97;10324212;28;19925;-79
2023/10/05 16:10:52;;;;;;;;;;;;;;;-144.32;100.00;68061.97;10328282;28;19932;-79
2023/10/05 16:15:54;;;;;;;;;;;;;;;-144.32;100.00;68061.97;10344780;28;20368;-78
2023/10/05 16:20:56;;;;;;;;;;;;;;;-144.32;100.00;68061.97;10331532;28;19984;-77
2023/10/05 16:26:00;;;;;;;;;;;;;;;-144.32;100.00;68061.97;10324322;28;19926;-79
2023/10/05 16:31:00;;;;;;;;;;;;;;;-144.32;100.00;68061.97;10321716;28;19933;-79
2023/10/05 16:36:02;;;;;;;;;;;;;;;-144.32;100.00;68061.97;10321059;28;19926;-81
2023/10/05 16:41:02;;;;;;;;;;;;;;;-144.32;100.00;68061.97;10321196;28;19936;-80
2023/10/05 16:46:08;;;;;;;;;;;;;;;-144.32;100.00;68061.97;10326478;28;19932;-76
2023/10/05 16:51:10;;;;;;;;;;;;;;;-144.32;100.00;68061.97;10307197;28;19926;-79
2023/10/05 16:56:10;;;;;;;;;;;;;;;-144.32;100.00;68061.97;10319810;28;19933;-80
2023/10/05 17:01:11;;;;;;;;;;;;;;;-144.32;100.00;68061.97;10315082;28;19933;-81
2023/10/05 17:06:14;;;;;;;;;;;;;;;-144.32;100.00;68061.97;10317539;28;19941;-83
2023/10/05 17:11:15;;;;;;;;;;;;;;;-144.32;100.00;68061.97;10306590;28;19988;-80
2023/10/05 17:16:16;;;;;;;;;;;;;;;-144.32;100.00;68061.97;10331363;28;19976;-83
2023/10/05 17:21:17;;;;;;;;;;;;;;;-144.32;100.00;68061.97;10324168;28;21131;-78
2023/10/05 17:26:19;;;;;;;;;;;;;;;-144.32;100.00;68061.97;10326811;28;19936;-79
2023/10/05 17:31:19;;;;;;;;;;;;;;;-144.32;100.00;68061.97;10328737;28;19988;-77
2023/10/05 17:36:20;;;;;;;;;;;;;;;-144.32;100.00;68061.97;10305092;28;19925;-80
2023/10/05 17:41:21;;;;;;;;;;;;;;;-144.32;100.00;68061.97;10321101;28;20780;-77
2023/10/05 17:46:22;;;;;;;;;;;;;;;-144.32;100.00;68061.97;10316730;28;19941;-78
2023/10/05 17:51:22;;;;;;;;;;;;;;;-144.32;100.00;68061.97;10324662;28;19985;-81
2023/10/05 17:56:25;;;;;;;;;;;;;;;-144.32;100.00;68061.97;10294705;28;20084;-80
2023/10/05 18:01:26;;;;;;;;;;;;;;;-144.32;100.00;68061.97;10308431;28;20340;-81
2023/10/05 18:06:29;;;;;;;;;;;;;;;-144.32;100.00;68061.97;10306548;28;19926;-82
2023/10/05 18:11:30;;;;;;;;;;;;;;;-144.32;100.00;68061.97;10288337;28;19936;-82
2023/10/05 18:16:32;;;;;;;;;;;;;;;-144.32;100.00;68061.97;10308771;28;19933;-83
2023/10/05 18:21:32;;;;;;;;;;;;;;;-144.32;100.00;68061.97;10303618;28;19944;-81
2023/10/05 18:26:36;;;;;;;;;;;;;;;-144.32;100.00;68061.97;10296892;28;20020;-84
2023/10/05 18:31:40;;;;;;;;;;;;;;;-144.32;100.00;68061.97;10307525;28;19956;-81
2023/10/05 18:37:03;;;;;;;;;;;;;;;-144.32;100.00;68061.97;10295647;28;20317;-82
2023/10/05 18:42:17;;;;;;;;;;;;;;;-144.32;100.00;68061.97;10308995;28;19922;-81
2023/10/05 18:47:17;;;;;;;;;;;;;;;-144.32;100.00;68061.97;10301968;28;19991;-82
2023/10/05 18:52:20;;;;;;;;;;;;;;;-144.32;100.00;68061.97;10315158;28;19972;-80
2023/10/05 18:57:21;;;;;;;;;;;;;;;-144.32;100.00;68061.97;10315869;28;20028;-83
2023/10/05 19:02:22;;;;;;;;;;;;;;;-144.32;100.00;68061.97;10327584;28;19922;-82
2023/10/05 19:07:23;;;;;;;;;;;;;;;-144.32;100.00;68061.97;10319315;28;20716;-81
2023/10/05 19:12:27;;;;;;;;;;;;;;;-144.32;100.00;68061.97;10344497;28;19933;-82
2023/10/05 19:17:28;;;;;;;;;;;;;;;-144.32;100.00;68061.97;10329309;28;19940;-80
2023/10/05 19:22:39;;;;;;;;;;;;;;;-144.32;100.00;68061.97;10339448;28;19949;-84
2023/10/05 19:27:39;;;;;;;;;;;;;;;-144.32;100.00;68061.97;10366241;28;19910;-83
2023/10/05 19:32:40;;;;;;;;;;;;;;;-144.32;100.00;68061.97;10339083;28;19937;-80
2023/10/05 19:37:49;;;;;;;;;;;;;;;-144.32;100.00;68061.97;10328644;28;19928;-82
2023/10/05 19:42:52;;;;;;;;;;;;;;;-144.32;100.00;68061.97;10320472;28;19929;-81
2023/10/05 19:47:53;;;;;;;;;;;;;;;-144.32;100.00;68061.97;10333951;28;19948;-80
2023/10/05 19:53:00;;;;;;;;;;;;;;;-144.32;100.00;68061.97;10332481;28;19971;-80
2023/10/05 19:58:21;;;;;;;;;;;;;;;-144.32;100.00;68061.97;10327560;28;19972;-81
2023/10/05 20:03:22;;;;;;;;;;;;;;;-144.32;100.00;68061.97;10289394;28;19969;-81
2023/10/05 20:08:23;;;;;;;;;;;;;;;-144.32;100.00;68061.97;10322357;28;20381;-80
2023/10/05 20:13:24;;;;;;;;;;;;;;;-144.32;100.00;68061.97;10306388;28;21064;-83
2023/10/05 20:18:26;;;;;;;;;;;;;;;-144.32;100.00;68061.97;10320501;28;19926;-83
2023/10/05 20:23:29;;;;;;;;;;;;;;;-144.32;100.00;68061.97;10289045;28;19973;-83
2023/10/05 20:28:32;;;;;;;;;;;;;;;-144.32;100.00;68061.97;10309981;28;20016;-83
2023/10/05 20:33:33;;;;;;;;;;;;;;;-144.32;100.00;68061.97;10329130;28;19926;-83
2023/10/05 20:38:34;;;;;;;;;;;;;;;-144.32;100.00;68061.97;10323632;28;19922;-81
2023/10/05 20:43:34;;;;;;;;;;;;;;;-144.32;100.00;68061.97;10324274;28;20002;-81
2023/10/05 20:48:35;;;;;;;;;;;;;;;-144.32;100.00;68061.97;10324335;28;19926;-81
2023/10/05 20:53:35;;;;;;;;;;;;;;;-144.32;100.00;68061.97;10328061;28;19926;-80
2023/10/05 20:58:37;;;;;;;;;;;;;;;-144.32;100.00;68061.97;10292010;28;19932;-80
2023/10/05 21:03:39;;;;;;;;;;;;;;;-144.32;100.00;68061.97;10325712;28;20040;-79
2023/10/05 21:08:41;;;;;;;;;;;;;;;-144.32;100.00;68061.97;10319423;28;20556;-79
2023/10/05 21:13:42;;;;;;;;;;;;;;;-144.32;100.00;68061.97;10312982;28;20035;-82
2023/10/05 21:18:43;;;;;;;;;;;;;;;-144.32;100.00;68061.97;10311969;28;20077;-78
2023/10/05 21:23:45;;;;;;;;;;;;;;;-144.32;100.00;68061.97;10308441;28;19925;-81
2023/10/05 21:28:46;;;;;;;;;;;;;;;-144.32;100.00;68061.97;10318011;28;19925;-82
2023/10/05 21:33:46;;;;;;;;;;;;;;;-144.32;100.00;68061.97;10343189;28;20013;-82
2023/10/05 21:38:50;;;;;;;;;;;;;;;-144.32;100.00;68061.97;10354113;28;19932;-80
2023/10/05 21:43:51;;;;;;;;;;;;;;;-144.32;100.00;68061.97;10300806;28;19937;-79
2023/10/05 21:48:53;;;;;;;;;;;;;;;-144.32;100.00;68061.97;10282345;28;19946;-82
2023/10/05 21:53:53;;;;;;;;;;;;;;;-144.32;100.00;68061.97;10258858;28;20410;-80
2023/10/05 21:58:54;;;;;;;;;;;;;;;-144.32;100.00;68061.97;10271435;28;19926;-80
2023/10/05 22:03:55;;;;;;;;;;;;;;;-144.32;100.00;68061.97;10274064;28;19930;-80
2023/10/05 22:08:59;;;;;;;;;;;;;;;-144.32;100.00;68061.97;10299289;28;19922;-80
2023/10/05 22:14:01;;;;;;;;;;;;;;;-144.32;100.00;68061.97;10307555;28;19990;-80
2023/10/05 22:19:03;;;;;;;;;;;;;;;-144.32;100.00;68061.97;10288264;28;20371;-82
2023/10/05 22:24:03;;;;;;;;;;;;;;;-144.32;100.00;68061.97;10286741;28;19964;-81
2023/10/05 22:29:07;;;;;;;;;;;;;;;-144.32;100.00;68061.97;10279547;28;19922;-83
2023/10/05 22:34:09;;;;;;;;;;;;;;;-144.32;100.00;68061.97;10291061;28;19922;-82
2023/10/05 22:39:10;;;;;;;;;;;;;;;-144.32;100.00;68061.97;10311372;28;19922;-78
2023/10/05 22:44:13;;;;;;;;;;;;;;;-144.32;100.00;68061.97;10271960;28;19932;-78
2023/10/05 22:49:14;;;;;;;;;;;;;;;-144.32;100.00;68061.97;10275397;28;19928;-78
2023/10/05 22:54:14;;;;;;;;;;;;;;;-144.32;100.00;68061.97;10270260;28;19965;-79
2023/10/05 22:59:15;;;;;;;;;;;;;;;-144.32;100.00;68061.97;10259205;28;19930;-79
2023/10/05 23:04:15;;;;;;;;;;;;;;;-144.32;100.00;68061.97;10263873;28;19926;-78
2023/10/05 23:09:18;;;;;;;;;;;;;;;-144.32;100.00;68061.97;10260961;28;20370;-80
2023/10/05 23:14:19;;;;;;;;;;;;;;;-144.32;100.00;68061.97;10264611;28;20048;-78
2023/10/05 23:19:20;;;;;;;;;;;;;;;-144.32;100.00;68061.97;10264700;28;20342;-78
2023/10/05 23:24:23;;;;;;;;;;;;;;;-144.32;100.00;68061.97;10259028;28;19948;-80
2023/10/05 23:29:23;;;;;;;;;;;;;;;-144.32;100.00;68061.97;10246738;28;20044;-78
2023/10/05 23:34:28;;;;;;;;;;;;;;;-144.32;100.00;68061.97;10276134;28;19936;-80
2023/10/05 23:39:28;;;;;;;;;;;;;;;-144.32;100.00;68061.97;10287680;28;19933;-82
2023/10/05 23:44:29;;;;;;;;;;;;;;;-144.32;100.00;68061.97;10301494;28;19926;-82
2023/10/05 23:49:32;;;;;;;;;;;;;;;-144.32;100.00;68061.97;10298610;28;19926;-80
2023/10/05 23:54:32;;;;;;;;;;;;;;;-144.32;100.00;68061.97;10310790;28;19972;-82
2023/10/05 23:59:53;;;;;;;;;;;;;;;-144.32;100.00;68061.97;10301607;28;19948;-83
